sensor_id;sensor_type;location;lat;lon;timestamp;P1;durP1;ratioP1;P2;durP2;ratioP2
7823;SDS011;3957;48.61947800;9.05303100;2022-08-25T00:00:50;1.67;;;1.58;;
7823;SDS011;3957;48.61947800;9.05303100;2022-08-25T00:02:11;2.05;;;1.85;;
7823;SDS011;3957;48.61947800;9.05303100;2022-08-25T00:03:32;2.20;;;1.70;;
7823;SDS011;3957;48.61947800;9.05303100;2022-08-25T00:04:53;1.77;;;1.67;;
7823;SDS011;3957;48.61947800;9.05303100;2022-08-25T00:06:14;2.10;;;1.90;;
7823;SDS011;3957;48.61947800;9.05303100;2022-08-25T00:07:35;2.22;;;1.90;;
7823;SDS011;3957;48.61947800;9.05303100;2022-08-25T00:08:56;2.15;;;1.95;;
7823;SDS011;3957;48.61947800;9.05303100;2022-08-25T00:10:19;2.60;;;1.90;;
7823;SDS011;3957;48.61947800;9.05303100;2022-08-25T00:11:39;2.30;;;2.10;;
7823;SDS011;3957;48.61947800;9.05303100;2022-08-25T00:13:01;2.45;;;2.13;;
7823;SDS011;3957;48.61947800;9.05303100;2022-08-25T00:14:25;2.92;;;2.22;;
7823;SDS011;3957;48.61947800;9.05303100;2022-08-25T00:15:49;2.17;;;1.80;;
7823;SDS011;3957;48.61947800;9.05303100;2022-08-25T00:17:09;2.45;;;1.95;;
7823;SDS011;3957;48.61947800;9.05303100;2022-08-25T00:18:30;2.17;;;1.98;;
7823;SDS011;3957;48.61947800;9.05303100;2022-08-25T00:19:51;3.03;;;1.83;;
7823;SDS011;3957;48.61947800;9.05303100;2022-08-25T00:21:12;2.38;;;2.10;;
7823;SDS011;3957;48.61947800;9.05303100;2022-08-25T00:22:34;2.67;;;2.00;;
7823;SDS011;3957;48.61947800;9.05303100;2022-08-25T00:23:55;2.75;;;1.90;;
7823;SDS011;3957;48.61947800;9.05303100;2022-08-25T00:25:17;4.03;;;2.20;;
7823;SDS011;3957;48.61947800;9.05303100;2022-08-25T00:26:40;3.05;;;2.40;;
7823;SDS011;3957;48.61947800;9.05303100;2022-08-25T00:28:03;2.60;;;2.38;;
7823;SDS011;3957;48.61947800;9.05303100;2022-08-25T00:29:24;2.60;;;2.40;;
7823;SDS011;3957;48.61947800;9.05303100;2022-08-25T00:30:46;2.83;;;2.35;;
7823;SDS011;3957;48.61947800;9.05303100;2022-08-25T00:32:08;3.10;;;2.30;;
7823;SDS011;3957;48.61947800;9.05303100;2022-08-25T00:33:29;2.55;;;2.05;;
7823;SDS011;3957;48.61947800;9.05303100;2022-08-25T00:34:51;3.90;;;2.40;;
7823;SDS011;3957;48.61947800;9.05303100;2022-08-25T00:36:13;2.38;;;2.17;;
7823;SDS011;3957;48.61947800;9.05303100;2022-08-25T00:37:35;2.33;;;2.13;;
7823;SDS011;3957;48.61947800;9.05303100;2022-08-25T00:38:56;1.92;;;1.80;;
7823;SDS011;3957;48.61947800;9.05303100;2022-08-25T00:40:17;3.30;;;2.30;;
7823;SDS011;3957;48.61947800;9.05303100;2022-08-25T00:41:39;3.17;;;2.40;;
7823;SDS011;3957;48.61947800;9.05303100;2022-08-25T00:43:01;2.90;;;2.42;;
7823;SDS011;3957;48.61947800;9.05303100;2022-08-25T00:44:23;2.35;;;2.15;;
7823;SDS011;3957;48.61947800;9.05303100;2022-08-25T00:45:46;2.42;;;2.22;;
7823;SDS011;3957;48.61947800;9.05303100;2022-08-25T00:47:07;2.10;;;2.00;;
7823;SDS011;3957;48.61947800;9.05303100;2022-08-25T00:48:29;2.65;;;2.05;;
7823;SDS011;3957;48.61947800;9.05303100;2022-08-25T00:49:54;2.38;;;2.05;;
7823;SDS011;3957;48.61947800;9.05303100;2022-08-25T00:51:24;2.35;;;2.00;;
7823;SDS011;3957;48.61947800;9.05303100;2022-08-25T00:53:09;2.55;;;2.35;;
7823;SDS011;3957;48.61947800;9.05303100;2022-08-25T00:54:33;2.30;;;2.10;;
7823;SDS011;3957;48.61947800;9.05303100;2022-08-25T00:56:15;3.70;;;2.17;;
7823;SDS011;3957;48.61947800;9.05303100;2022-08-25T00:57:42;2.20;;;1.95;;
7823;SDS011;3957;48.61947800;9.05303100;2022-08-25T00:59:06;2.50;;;2.25;;
7823;SDS011;3957;48.61947800;9.05303100;2022-08-25T01:00:30;2.50;;;2.30;;
7823;SDS011;3957;48.61947800;9.05303100;2022-08-25T01:01:56;2.70;;;2.30;;
7823;SDS011;3957;48.61947800;9.05303100;2022-08-25T01:03:18;2.35;;;2.15;;
7823;SDS011;3957;48.61947800;9.05303100;2022-08-25T01:04:40;2.30;;;2.10;;
7823;SDS011;3957;48.61947800;9.05303100;2022-08-25T01:06:05;2.47;;;2.10;;
7823;SDS011;3957;48.61947800;9.05303100;2022-08-25T01:07:26;2.58;;;2.03;;
7823;SDS011;3957;48.61947800;9.05303100;2022-08-25T01:08:47;2.50;;;2.30;;
7823;SDS011;3957;48.61947800;9.05303100;2022-08-25T01:10:08;2.72;;;2.13;;
7823;SDS011;3957;48.61947800;9.05303100;2022-08-25T01:11:31;2.30;;;2.10;;
7823;SDS011;3957;48.61947800;9.05303100;2022-08-25T01:12:55;3.50;;;2.40;;
7823;SDS011;3957;48.61947800;9.05303100;2022-08-25T01:14:20;2.40;;;2.17;;
7823;SDS011;3957;48.61947800;9.05303100;2022-08-25T01:15:44;2.70;;;2.30;;
7823;SDS011;3957;48.61947800;9.05303100;2022-08-25T01:17:06;2.50;;;2.17;;
7823;SDS011;3957;48.61947800;9.05303100;2022-08-25T01:18:31;2.30;;;2.10;;
7823;SDS011;3957;48.61947800;9.05303100;2022-08-25T01:20:02;3.40;;;2.50;;
7823;SDS011;3957;48.61947800;9.05303100;2022-08-25T01:21:24;3.13;;;2.63;;
7823;SDS011;3957;48.61947800;9.05303100;2022-08-25T01:22:47;2.85;;;2.53;;
7823;SDS011;3957;48.61947800;9.05303100;2022-08-25T01:24:10;2.75;;;2.42;;
7823;SDS011;3957;48.61947800;9.05303100;2022-08-25T01:25:42;3.13;;;2.60;;
7823;SDS011;3957;48.61947800;9.05303100;2022-08-25T01:27:09;2.33;;;2.13;;
7823;SDS011;3957;48.61947800;9.05303100;2022-08-25T01:28:30;2.50;;;2.30;;
7823;SDS011;3957;48.61947800;9.05303100;2022-08-25T01:29:51;2.85;;;2.35;;
7823;SDS011;3957;48.61947800;9.05303100;2022-08-25T01:31:12;3.00;;;2.50;;
7823;SDS011;3957;48.61947800;9.05303100;2022-08-25T01:32:33;2.50;;;2.30;;
7823;SDS011;3957;48.61947800;9.05303100;2022-08-25T01:33:54;2.60;;;2.40;;
7823;SDS011;3957;48.61947800;9.05303100;2022-08-25T01:35:16;2.67;;;2.40;;
7823;SDS011;3957;48.61947800;9.05303100;2022-08-25T01:36:37;2.70;;;2.38;;
7823;SDS011;3957;48.61947800;9.05303100;2022-08-25T01:38:00;2.75;;;2.30;;
7823;SDS011;3957;48.61947800;9.05303100;2022-08-25T01:39:22;2.60;;;2.20;;
7823;SDS011;3957;48.61947800;9.05303100;2022-08-25T01:40:44;3.80;;;2.38;;
7823;SDS011;3957;48.61947800;9.05303100;2022-08-25T01:43:35;3.53;;;2.38;;
7823;SDS011;3957;48.61947800;9.05303100;2022-08-25T01:44:58;3.05;;;2.17;;
7823;SDS011;3957;48.61947800;9.05303100;2022-08-25T01:46:18;2.55;;;2.10;;
7823;SDS011;3957;48.61947800;9.05303100;2022-08-25T01:47:39;2.95;;;2.47;;
7823;SDS011;3957;48.61947800;9.05303100;2022-08-25T01:49:00;3.13;;;2.67;;
7823;SDS011;3957;48.61947800;9.05303100;2022-08-25T01:50:21;2.70;;;2.50;;
7823;SDS011;3957;48.61947800;9.05303100;2022-08-25T01:51:46;3.60;;;2.63;;
7823;SDS011;3957;48.61947800;9.05303100;2022-08-25T01:53:18;2.85;;;2.55;;
7823;SDS011;3957;48.61947800;9.05303100;2022-08-25T01:54:43;2.90;;;2.60;;
7823;SDS011;3957;48.61947800;9.05303100;2022-08-25T01:56:11;2.53;;;2.33;;
7823;SDS011;3957;48.61947800;9.05303100;2022-08-25T01:57:34;2.78;;;2.55;;
7823;SDS011;3957;48.61947800;9.05303100;2022-08-25T01:58:55;4.65;;;2.75;;
7823;SDS011;3957;48.61947800;9.05303100;2022-08-25T02:00:16;3.80;;;2.60;;
7823;SDS011;3957;48.61947800;9.05303100;2022-08-25T02:01:39;3.55;;;2.55;;
7823;SDS011;3957;48.61947800;9.05303100;2022-08-25T02:03:00;2.60;;;2.40;;
7823;SDS011;3957;48.61947800;9.05303100;2022-08-25T02:04:21;4.13;;;2.70;;
7823;SDS011;3957;48.61947800;9.05303100;2022-08-25T02:05:42;2.72;;;2.53;;
7823;SDS011;3957;48.61947800;9.05303100;2022-08-25T02:07:03;2.95;;;2.45;;
7823;SDS011;3957;48.61947800;9.05303100;2022-08-25T02:08:27;2.42;;;2.20;;
7823;SDS011;3957;48.61947800;9.05303100;2022-08-25T02:09:48;2.63;;;2.33;;
7823;SDS011;3957;48.61947800;9.05303100;2022-08-25T02:11:09;2.40;;;2.20;;
7823;SDS011;3957;48.61947800;9.05303100;2022-08-25T02:12:32;2.35;;;2.15;;
7823;SDS011;3957;48.61947800;9.05303100;2022-08-25T02:13:54;2.53;;;2.33;;
7823;SDS011;3957;48.61947800;9.05303100;2022-08-25T02:15:15;2.72;;;2.53;;
7823;SDS011;3957;48.61947800;9.05303100;2022-08-25T02:16:37;2.58;;;2.38;;
7823;SDS011;3957;48.61947800;9.05303100;2022-08-25T02:18:00;2.30;;;2.10;;
7823;SDS011;3957;48.61947800;9.05303100;2022-08-25T02:19:21;3.27;;;2.60;;
7823;SDS011;3957;48.61947800;9.05303100;2022-08-25T02:20:43;3.22;;;2.50;;
7823;SDS011;3957;48.61947800;9.05303100;2022-08-25T02:22:05;2.60;;;2.40;;
7823;SDS011;3957;48.61947800;9.05303100;2022-08-25T02:23:25;2.80;;;2.47;;
7823;SDS011;3957;48.61947800;9.05303100;2022-08-25T02:24:47;2.80;;;2.33;;
7823;SDS011;3957;48.61947800;9.05303100;2022-08-25T02:26:08;3.38;;;2.30;;
7823;SDS011;3957;48.61947800;9.05303100;2022-08-25T02:27:29;3.15;;;2.55;;
7823;SDS011;3957;48.61947800;9.05303100;2022-08-25T02:28:50;2.60;;;2.30;;
7823;SDS011;3957;48.61947800;9.05303100;2022-08-25T02:30:13;2.50;;;2.30;;
7823;SDS011;3957;48.61947800;9.05303100;2022-08-25T02:31:35;2.50;;;2.28;;
7823;SDS011;3957;48.61947800;9.05303100;2022-08-25T02:32:56;2.30;;;2.10;;
7823;SDS011;3957;48.61947800;9.05303100;2022-08-25T02:34:17;3.03;;;2.50;;
7823;SDS011;3957;48.61947800;9.05303100;2022-08-25T02:35:38;2.50;;;2.30;;
7823;SDS011;3957;48.61947800;9.05303100;2022-08-25T02:36:59;2.88;;;2.22;;
7823;SDS011;3957;48.61947800;9.05303100;2022-08-25T02:38:19;2.85;;;2.50;;
7823;SDS011;3957;48.61947800;9.05303100;2022-08-25T02:39:40;3.08;;;2.70;;
7823;SDS011;3957;48.61947800;9.05303100;2022-08-25T02:41:06;3.33;;;2.65;;
7823;SDS011;3957;48.61947800;9.05303100;2022-08-25T02:42:39;2.72;;;2.50;;
7823;SDS011;3957;48.61947800;9.05303100;2022-08-25T02:44:00;3.38;;;2.80;;
7823;SDS011;3957;48.61947800;9.05303100;2022-08-25T02:45:23;3.65;;;2.92;;
7823;SDS011;3957;48.61947800;9.05303100;2022-08-25T02:46:44;3.00;;;2.70;;
7823;SDS011;3957;48.61947800;9.05303100;2022-08-25T02:48:05;3.40;;;2.72;;
7823;SDS011;3957;48.61947800;9.05303100;2022-08-25T02:49:26;3.10;;;2.80;;
7823;SDS011;3957;48.61947800;9.05303100;2022-08-25T02:50:48;2.70;;;2.50;;
7823;SDS011;3957;48.61947800;9.05303100;2022-08-25T02:52:11;2.97;;;2.47;;
7823;SDS011;3957;48.61947800;9.05303100;2022-08-25T02:53:33;3.10;;;2.75;;
7823;SDS011;3957;48.61947800;9.05303100;2022-08-25T02:54:55;3.80;;;2.78;;
7823;SDS011;3957;48.61947800;9.05303100;2022-08-25T02:56:16;3.75;;;2.70;;
7823;SDS011;3957;48.61947800;9.05303100;2022-08-25T02:57:39;3.72;;;2.88;;
7823;SDS011;3957;48.61947800;9.05303100;2022-08-25T02:59:01;4.25;;;2.50;;
7823;SDS011;3957;48.61947800;9.05303100;2022-08-25T03:00:23;3.53;;;2.80;;
7823;SDS011;3957;48.61947800;9.05303100;2022-08-25T03:01:44;4.38;;;2.45;;
7823;SDS011;3957;48.61947800;9.05303100;2022-08-25T03:03:05;2.90;;;2.50;;
7823;SDS011;3957;48.61947800;9.05303100;2022-08-25T03:04:26;3.08;;;2.78;;
7823;SDS011;3957;48.61947800;9.05303100;2022-08-25T03:05:48;3.10;;;2.80;;
7823;SDS011;3957;48.61947800;9.05303100;2022-08-25T03:07:09;3.08;;;2.78;;
7823;SDS011;3957;48.61947800;9.05303100;2022-08-25T03:08:31;3.38;;;3.08;;
7823;SDS011;3957;48.61947800;9.05303100;2022-08-25T03:09:52;3.45;;;2.90;;
7823;SDS011;3957;48.61947800;9.05303100;2022-08-25T03:11:12;3.13;;;2.53;;
7823;SDS011;3957;48.61947800;9.05303100;2022-08-25T03:12:33;3.30;;;3.00;;
7823;SDS011;3957;48.61947800;9.05303100;2022-08-25T03:13:54;3.80;;;3.30;;
7823;SDS011;3957;48.61947800;9.05303100;2022-08-25T03:15:16;3.45;;;2.88;;
7823;SDS011;3957;48.61947800;9.05303100;2022-08-25T03:16:37;3.83;;;2.97;;
7823;SDS011;3957;48.61947800;9.05303100;2022-08-25T03:17:59;3.10;;;2.78;;
7823;SDS011;3957;48.61947800;9.05303100;2022-08-25T03:19:21;3.28;;;2.85;;
7823;SDS011;3957;48.61947800;9.05303100;2022-08-25T03:20:43;4.65;;;3.40;;
7823;SDS011;3957;48.61947800;9.05303100;2022-08-25T03:22:05;3.47;;;2.83;;
7823;SDS011;3957;48.61947800;9.05303100;2022-08-25T03:23:26;5.07;;;4.05;;
7823;SDS011;3957;48.61947800;9.05303100;2022-08-25T03:24:46;5.25;;;3.78;;
7823;SDS011;3957;48.61947800;9.05303100;2022-08-25T03:26:07;3.75;;;3.17;;
7823;SDS011;3957;48.61947800;9.05303100;2022-08-25T03:27:47;4.70;;;3.40;;
7823;SDS011;3957;48.61947800;9.05303100;2022-08-25T03:29:08;3.78;;;3.38;;
7823;SDS011;3957;48.61947800;9.05303100;2022-08-25T03:30:30;4.22;;;3.83;;
7823;SDS011;3957;48.61947800;9.05303100;2022-08-25T03:31:51;4.05;;;3.65;;
7823;SDS011;3957;48.61947800;9.05303100;2022-08-25T03:33:14;7.40;;;4.07;;
7823;SDS011;3957;48.61947800;9.05303100;2022-08-25T03:34:34;5.97;;;4.05;;
7823;SDS011;3957;48.61947800;9.05303100;2022-08-25T03:35:55;4.15;;;3.75;;
7823;SDS011;3957;48.61947800;9.05303100;2022-08-25T03:37:17;3.95;;;3.40;;
7823;SDS011;3957;48.61947800;9.05303100;2022-08-25T03:38:38;3.42;;;3.00;;
7823;SDS011;3957;48.61947800;9.05303100;2022-08-25T03:40:00;3.53;;;3.22;;
7823;SDS011;3957;48.61947800;9.05303100;2022-08-25T03:41:24;4.03;;;3.38;;
7823;SDS011;3957;48.61947800;9.05303100;2022-08-25T03:42:51;3.88;;;3.28;;
7823;SDS011;3957;48.61947800;9.05303100;2022-08-25T03:44:16;4.13;;;3.30;;
7823;SDS011;3957;48.61947800;9.05303100;2022-08-25T03:45:39;4.47;;;3.60;;
7823;SDS011;3957;48.61947800;9.05303100;2022-08-25T03:47:01;4.57;;;3.60;;
7823;SDS011;3957;48.61947800;9.05303100;2022-08-25T03:48:22;4.18;;;3.53;;
7823;SDS011;3957;48.61947800;9.05303100;2022-08-25T03:49:42;4.78;;;3.40;;
7823;SDS011;3957;48.61947800;9.05303100;2022-08-25T03:51:03;3.97;;;3.40;;
7823;SDS011;3957;48.61947800;9.05303100;2022-08-25T03:52:24;4.05;;;3.63;;
7823;SDS011;3957;48.61947800;9.05303100;2022-08-25T03:53:45;4.25;;;3.20;;
7823;SDS011;3957;48.61947800;9.05303100;2022-08-25T03:55:07;4.03;;;3.30;;
7823;SDS011;3957;48.61947800;9.05303100;2022-08-25T03:56:29;3.70;;;3.30;;
7823;SDS011;3957;48.61947800;9.05303100;2022-08-25T03:57:51;4.90;;;3.30;;
7823;SDS011;3957;48.61947800;9.05303100;2022-08-25T03:59:13;5.10;;;3.30;;
7823;SDS011;3957;48.61947800;9.05303100;2022-08-25T04:00:35;4.85;;;3.42;;
7823;SDS011;3957;48.61947800;9.05303100;2022-08-25T04:01:56;6.05;;;3.80;;
7823;SDS011;3957;48.61947800;9.05303100;2022-08-25T04:03:17;4.97;;;3.67;;
7823;SDS011;3957;48.61947800;9.05303100;2022-08-25T04:04:38;4.22;;;3.40;;
7823;SDS011;3957;48.61947800;9.05303100;2022-08-25T04:06:03;5.57;;;3.83;;
7823;SDS011;3957;48.61947800;9.05303100;2022-08-25T04:07:25;4.53;;;3.58;;
7823;SDS011;3957;48.61947800;9.05303100;2022-08-25T04:08:46;5.50;;;3.40;;
7823;SDS011;3957;48.61947800;9.05303100;2022-08-25T04:10:08;4.10;;;3.25;;
7823;SDS011;3957;48.61947800;9.05303100;2022-08-25T04:11:29;4.88;;;3.53;;
7823;SDS011;3957;48.61947800;9.05303100;2022-08-25T04:12:50;4.85;;;3.78;;
7823;SDS011;3957;48.61947800;9.05303100;2022-08-25T04:14:11;4.65;;;3.38;;
7823;SDS011;3957;48.61947800;9.05303100;2022-08-25T04:15:32;4.70;;;3.80;;
7823;SDS011;3957;48.61947800;9.05303100;2022-08-25T04:16:53;4.00;;;3.60;;
7823;SDS011;3957;48.61947800;9.05303100;2022-08-25T04:18:14;4.85;;;3.50;;
7823;SDS011;3957;48.61947800;9.05303100;2022-08-25T04:19:35;4.63;;;3.70;;
7823;SDS011;3957;48.61947800;9.05303100;2022-08-25T04:21:04;5.60;;;3.55;;
7823;SDS011;3957;48.61947800;9.05303100;2022-08-25T04:22:25;5.22;;;3.30;;
7823;SDS011;3957;48.61947800;9.05303100;2022-08-25T04:23:47;4.68;;;3.70;;
7823;SDS011;3957;48.61947800;9.05303100;2022-08-25T04:25:10;4.85;;;3.83;;
7823;SDS011;3957;48.61947800;9.05303100;2022-08-25T04:26:36;3.58;;;3.17;;
7823;SDS011;3957;48.61947800;9.05303100;2022-08-25T04:28:00;4.30;;;3.20;;
7823;SDS011;3957;48.61947800;9.05303100;2022-08-25T04:29:21;4.00;;;3.13;;
7823;SDS011;3957;48.61947800;9.05303100;2022-08-25T04:30:43;3.90;;;3.20;;
7823;SDS011;3957;48.61947800;9.05303100;2022-08-25T04:32:04;3.75;;;3.38;;
7823;SDS011;3957;48.61947800;9.05303100;2022-08-25T04:33:25;4.38;;;3.30;;
7823;SDS011;3957;48.61947800;9.05303100;2022-08-25T04:34:45;3.75;;;3.20;;
7823;SDS011;3957;48.61947800;9.05303100;2022-08-25T04:36:08;5.28;;;3.83;;
7823;SDS011;3957;48.61947800;9.05303100;2022-08-25T04:37:31;4.45;;;3.60;;
7823;SDS011;3957;48.61947800;9.05303100;2022-08-25T04:38:52;4.93;;;3.60;;
7823;SDS011;3957;48.61947800;9.05303100;2022-08-25T04:40:13;4.60;;;3.70;;
7823;SDS011;3957;48.61947800;9.05303100;2022-08-25T04:41:34;5.53;;;4.05;;
7823;SDS011;3957;48.61947800;9.05303100;2022-08-25T04:42:55;5.70;;;4.00;;
7823;SDS011;3957;48.61947800;9.05303100;2022-08-25T04:44:16;4.43;;;3.77;;
7823;SDS011;3957;48.61947800;9.05303100;2022-08-25T04:45:37;8.00;;;4.07;;
7823;SDS011;3957;48.61947800;9.05303100;2022-08-25T04:46:59;4.45;;;3.85;;
7823;SDS011;3957;48.61947800;9.05303100;2022-08-25T04:48:21;5.80;;;4.35;;
7823;SDS011;3957;48.61947800;9.05303100;2022-08-25T04:49:42;5.15;;;4.18;;
7823;SDS011;3957;48.61947800;9.05303100;2022-08-25T04:51:04;4.18;;;3.78;;
7823;SDS011;3957;48.61947800;9.05303100;2022-08-25T04:52:26;7.03;;;4.38;;
7823;SDS011;3957;48.61947800;9.05303100;2022-08-25T04:53:47;7.20;;;4.60;;
7823;SDS011;3957;48.61947800;9.05303100;2022-08-25T04:55:07;6.97;;;4.70;;
7823;SDS011;3957;48.61947800;9.05303100;2022-08-25T04:56:28;5.95;;;4.70;;
7823;SDS011;3957;48.61947800;9.05303100;2022-08-25T04:57:50;6.10;;;4.70;;
7823;SDS011;3957;48.61947800;9.05303100;2022-08-25T04:59:12;4.93;;;4.22;;
7823;SDS011;3957;48.61947800;9.05303100;2022-08-25T05:00:34;5.97;;;4.40;;
7823;SDS011;3957;48.61947800;9.05303100;2022-08-25T05:01:56;4.38;;;3.92;;
7823;SDS011;3957;48.61947800;9.05303100;2022-08-25T05:03:21;5.00;;;3.90;;
7823;SDS011;3957;48.61947800;9.05303100;2022-08-25T05:04:42;5.50;;;3.95;;
7823;SDS011;3957;48.61947800;9.05303100;2022-08-25T05:06:03;4.07;;;3.23;;
7823;SDS011;3957;48.61947800;9.05303100;2022-08-25T05:07:24;3.90;;;3.45;;
7823;SDS011;3957;48.61947800;9.05303100;2022-08-25T05:08:45;4.50;;;3.58;;
7823;SDS011;3957;48.61947800;9.05303100;2022-08-25T05:10:06;4.80;;;3.85;;
7823;SDS011;3957;48.61947800;9.05303100;2022-08-25T05:11:27;5.07;;;3.50;;
7823;SDS011;3957;48.61947800;9.05303100;2022-08-25T05:12:47;3.80;;;3.40;;
7823;SDS011;3957;48.61947800;9.05303100;2022-08-25T05:14:08;4.35;;;3.33;;
7823;SDS011;3957;48.61947800;9.05303100;2022-08-25T05:15:31;4.28;;;3.40;;
7823;SDS011;3957;48.61947800;9.05303100;2022-08-25T05:17:10;4.00;;;3.30;;
7823;SDS011;3957;48.61947800;9.05303100;2022-08-25T05:18:31;4.43;;;3.50;;
7823;SDS011;3957;48.61947800;9.05303100;2022-08-25T05:19:53;4.05;;;3.30;;
7823;SDS011;3957;48.61947800;9.05303100;2022-08-25T05:21:14;4.10;;;3.50;;
7823;SDS011;3957;48.61947800;9.05303100;2022-08-25T05:22:37;3.58;;;3.28;;
7823;SDS011;3957;48.61947800;9.05303100;2022-08-25T05:23:59;3.92;;;3.33;;
7823;SDS011;3957;48.61947800;9.05303100;2022-08-25T05:25:20;4.55;;;3.22;;
7823;SDS011;3957;48.61947800;9.05303100;2022-08-25T05:26:41;4.00;;;3.10;;
7823;SDS011;3957;48.61947800;9.05303100;2022-08-25T05:28:02;5.65;;;3.50;;
7823;SDS011;3957;48.61947800;9.05303100;2022-08-25T05:29:23;3.75;;;3.20;;
7823;SDS011;3957;48.61947800;9.05303100;2022-08-25T05:30:44;5.20;;;3.47;;
7823;SDS011;3957;48.61947800;9.05303100;2022-08-25T05:32:08;6.07;;;3.67;;
7823;SDS011;3957;48.61947800;9.05303100;2022-08-25T05:33:29;6.38;;;3.75;;
7823;SDS011;3957;48.61947800;9.05303100;2022-08-25T05:34:50;5.03;;;3.50;;
7823;SDS011;3957;48.61947800;9.05303100;2022-08-25T05:36:11;4.03;;;3.42;;
7823;SDS011;3957;48.61947800;9.05303100;2022-08-25T05:37:33;5.40;;;3.50;;
7823;SDS011;3957;48.61947800;9.05303100;2022-08-25T05:38:54;4.18;;;3.40;;
7823;SDS011;3957;48.61947800;9.05303100;2022-08-25T05:40:15;4.22;;;3.30;;
7823;SDS011;3957;48.61947800;9.05303100;2022-08-25T05:41:36;3.35;;;2.90;;
7823;SDS011;3957;48.61947800;9.05303100;2022-08-25T05:42:57;4.57;;;3.30;;
7823;SDS011;3957;48.61947800;9.05303100;2022-08-25T05:44:18;3.88;;;3.00;;
7823;SDS011;3957;48.61947800;9.05303100;2022-08-25T05:45:39;5.65;;;3.03;;
7823;SDS011;3957;48.61947800;9.05303100;2022-08-25T05:47:01;2.90;;;2.60;;
7823;SDS011;3957;48.61947800;9.05303100;2022-08-25T05:48:22;2.88;;;2.58;;
7823;SDS011;3957;48.61947800;9.05303100;2022-08-25T05:49:43;3.33;;;2.50;;
7823;SDS011;3957;48.61947800;9.05303100;2022-08-25T05:51:05;3.70;;;2.78;;
7823;SDS011;3957;48.61947800;9.05303100;2022-08-25T05:52:29;3.22;;;2.60;;
7823;SDS011;3957;48.61947800;9.05303100;2022-08-25T05:53:50;3.42;;;2.80;;
7823;SDS011;3957;48.61947800;9.05303100;2022-08-25T05:55:11;3.55;;;2.53;;
7823;SDS011;3957;48.61947800;9.05303100;2022-08-25T05:56:32;3.13;;;2.58;;
7823;SDS011;3957;48.61947800;9.05303100;2022-08-25T05:57:53;2.63;;;2.42;;
7823;SDS011;3957;48.61947800;9.05303100;2022-08-25T05:59:13;2.83;;;2.35;;
7823;SDS011;3957;48.61947800;9.05303100;2022-08-25T06:00:34;3.40;;;2.67;;
7823;SDS011;3957;48.61947800;9.05303100;2022-08-25T06:01:57;3.05;;;2.75;;
7823;SDS011;3957;48.61947800;9.05303100;2022-08-25T06:03:36;3.08;;;2.55;;
7823;SDS011;3957;48.61947800;9.05303100;2022-08-25T06:04:57;4.00;;;2.60;;
7823;SDS011;3957;48.61947800;9.05303100;2022-08-25T06:06:19;3.43;;;2.90;;
7823;SDS011;3957;48.61947800;9.05303100;2022-08-25T06:07:41;5.40;;;4.18;;
7823;SDS011;3957;48.61947800;9.05303100;2022-08-25T06:09:02;4.95;;;3.97;;
7823;SDS011;3957;48.61947800;9.05303100;2022-08-25T06:10:24;4.47;;;3.70;;
7823;SDS011;3957;48.61947800;9.05303100;2022-08-25T06:11:45;4.97;;;3.87;;
7823;SDS011;3957;48.61947800;9.05303100;2022-08-25T06:13:07;5.00;;;3.80;;
7823;SDS011;3957;48.61947800;9.05303100;2022-08-25T06:14:28;5.13;;;3.72;;
7823;SDS011;3957;48.61947800;9.05303100;2022-08-25T06:15:49;5.85;;;3.85;;
7823;SDS011;3957;48.61947800;9.05303100;2022-08-25T06:17:09;5.07;;;4.22;;
7823;SDS011;3957;48.61947800;9.05303100;2022-08-25T06:18:30;5.43;;;4.13;;
7823;SDS011;3957;48.61947800;9.05303100;2022-08-25T06:19:51;6.80;;;4.63;;
7823;SDS011;3957;48.61947800;9.05303100;2022-08-25T06:21:13;6.13;;;4.45;;
7823;SDS011;3957;48.61947800;9.05303100;2022-08-25T06:22:35;5.50;;;4.18;;
7823;SDS011;3957;48.61947800;9.05303100;2022-08-25T06:23:57;5.47;;;3.85;;
7823;SDS011;3957;48.61947800;9.05303100;2022-08-25T06:25:19;5.38;;;3.95;;
7823;SDS011;3957;48.61947800;9.05303100;2022-08-25T06:26:41;5.78;;;3.92;;
7823;SDS011;3957;48.61947800;9.05303100;2022-08-25T06:28:03;6.05;;;4.20;;
7823;SDS011;3957;48.61947800;9.05303100;2022-08-25T06:29:24;6.30;;;4.85;;
7823;SDS011;3957;48.61947800;9.05303100;2022-08-25T06:30:45;4.47;;;3.97;;
7823;SDS011;3957;48.61947800;9.05303100;2022-08-25T06:32:07;3.88;;;3.40;;
7823;SDS011;3957;48.61947800;9.05303100;2022-08-25T06:33:28;6.15;;;4.43;;
7823;SDS011;3957;48.61947800;9.05303100;2022-08-25T06:34:49;6.00;;;4.80;;
7823;SDS011;3957;48.61947800;9.05303100;2022-08-25T06:36:10;5.15;;;3.92;;
7823;SDS011;3957;48.61947800;9.05303100;2022-08-25T06:37:31;5.68;;;4.43;;
7823;SDS011;3957;48.61947800;9.05303100;2022-08-25T06:38:52;5.82;;;4.28;;
7823;SDS011;3957;48.61947800;9.05303100;2022-08-25T06:40:13;5.65;;;4.07;;
7823;SDS011;3957;48.61947800;9.05303100;2022-08-25T06:41:35;5.55;;;3.92;;
7823;SDS011;3957;48.61947800;9.05303100;2022-08-25T06:42:57;4.32;;;3.70;;
7823;SDS011;3957;48.61947800;9.05303100;2022-08-25T06:44:17;4.13;;;3.70;;
7823;SDS011;3957;48.61947800;9.05303100;2022-08-25T06:45:38;4.18;;;3.53;;
7823;SDS011;3957;48.61947800;9.05303100;2022-08-25T06:46:59;5.35;;;4.15;;
7823;SDS011;3957;48.61947800;9.05303100;2022-08-25T06:48:19;4.97;;;3.88;;
7823;SDS011;3957;48.61947800;9.05303100;2022-08-25T06:49:41;3.78;;;3.38;;
7823;SDS011;3957;48.61947800;9.05303100;2022-08-25T06:51:08;4.20;;;3.60;;
7823;SDS011;3957;48.61947800;9.05303100;2022-08-25T06:52:32;6.15;;;4.50;;
7823;SDS011;3957;48.61947800;9.05303100;2022-08-25T06:53:52;4.63;;;3.80;;
7823;SDS011;3957;48.61947800;9.05303100;2022-08-25T06:55:13;6.10;;;3.50;;
7823;SDS011;3957;48.61947800;9.05303100;2022-08-25T06:56:34;7.32;;;3.80;;
7823;SDS011;3957;48.61947800;9.05303100;2022-08-25T06:57:55;5.80;;;4.70;;
7823;SDS011;3957;48.61947800;9.05303100;2022-08-25T06:59:16;4.72;;;3.83;;
7823;SDS011;3957;48.61947800;9.05303100;2022-08-25T07:00:37;5.07;;;4.03;;
7823;SDS011;3957;48.61947800;9.05303100;2022-08-25T07:01:58;4.50;;;3.58;;
7823;SDS011;3957;48.61947800;9.05303100;2022-08-25T07:03:20;6.40;;;4.27;;
7823;SDS011;3957;48.61947800;9.05303100;2022-08-25T07:04:40;4.93;;;4.00;;
7823;SDS011;3957;48.61947800;9.05303100;2022-08-25T07:06:01;5.50;;;4.10;;
7823;SDS011;3957;48.61947800;9.05303100;2022-08-25T07:07:22;5.32;;;3.72;;
7823;SDS011;3957;48.61947800;9.05303100;2022-08-25T07:08:43;5.03;;;4.00;;
7823;SDS011;3957;48.61947800;9.05303100;2022-08-25T07:10:04;4.88;;;4.10;;
7823;SDS011;3957;48.61947800;9.05303100;2022-08-25T07:11:26;4.40;;;3.88;;
7823;SDS011;3957;48.61947800;9.05303100;2022-08-25T07:12:48;3.38;;;3.03;;
7823;SDS011;3957;48.61947800;9.05303100;2022-08-25T07:14:09;4.57;;;4.07;;
7823;SDS011;3957;48.61947800;9.05303100;2022-08-25T07:15:31;4.88;;;3.80;;
7823;SDS011;3957;48.61947800;9.05303100;2022-08-25T07:16:52;4.65;;;4.00;;
7823;SDS011;3957;48.61947800;9.05303100;2022-08-25T07:18:12;4.65;;;4.05;;
7823;SDS011;3957;48.61947800;9.05303100;2022-08-25T07:19:33;6.15;;;4.47;;
7823;SDS011;3957;48.61947800;9.05303100;2022-08-25T07:20:54;5.43;;;4.60;;
7823;SDS011;3957;48.61947800;9.05303100;2022-08-25T07:22:16;5.40;;;4.00;;
7823;SDS011;3957;48.61947800;9.05303100;2022-08-25T07:23:37;7.28;;;4.88;;